createdAt,value
2022-09-28T00:01:17.495Z,8.23
2022-09-28T00:03:46.595Z,8.17
2022-09-28T00:06:16.989Z,8.10
2022-09-28T00:08:44.762Z,8.11
2022-09-28T00:11:15.510Z,8.04
2022-09-28T00:13:44.656Z,8.00
2022-09-28T00:16:15.728Z,8.10
2022-09-28T00:18:43.855Z,8.12
2022-09-28T00:21:19.923Z,8.05
2022-09-28T00:24:09.721Z,8.08
2022-09-28T00:26:38.354Z,8.08
2022-09-28T00:29:06.678Z,7.97
2022-09-28T00:31:35.521Z,7.99
2022-09-28T00:34:04.944Z,8.01
2022-09-28T00:36:33.391Z,8.05
2022-09-28T00:39:06.886Z,8.04
2022-09-28T00:41:35.964Z,8.03
2022-09-28T00:44:28.106Z,8.06
2022-09-28T00:47:22.417Z,8.02
2022-09-28T00:50:09.043Z,8.01
2022-09-28T00:52:42.960Z,7.95
2022-09-28T00:55:16.430Z,7.99
2022-09-28T00:57:48.960Z,7.88
2022-09-28T01:00:16.997Z,8.01
2022-09-28T01:02:46.082Z,7.88
2022-09-28T01:05:14.893Z,7.76
2022-09-28T01:07:44.376Z,7.69
2022-09-28T01:10:11.976Z,7.77
2022-09-28T01:12:39.410Z,7.84
2022-09-28T01:15:07.309Z,7.81
2022-09-28T01:17:49.963Z,7.81
2022-09-28T01:20:49.828Z,7.79
2022-09-28T01:23:38.715Z,7.83
2022-09-28T01:26:18.269Z,7.91
2022-09-28T01:28:48.266Z,7.71
2022-09-28T01:31:18.591Z,7.71
2022-09-28T01:34:03.820Z,7.80
2022-09-28T01:36:38.022Z,7.78
2022-09-28T01:39:16.839Z,7.77
2022-09-28T01:41:45.746Z,7.81
2022-09-28T01:44:17.850Z,7.66
2022-09-28T01:46:49.074Z,7.58
2022-09-28T01:49:41.036Z,7.65
2022-09-28T01:52:20.430Z,7.66
2022-09-28T01:55:14.202Z,7.55
2022-09-28T01:57:48.562Z,7.53
2022-09-28T02:00:19.661Z,7.50
2022-09-28T02:03:18.885Z,7.49
2022-09-28T02:05:55.021Z,7.61
2022-09-28T02:08:28.517Z,7.56
2022-09-28T02:11:22.558Z,7.65
2022-09-28T02:13:58.759Z,7.49
2022-09-28T02:16:40.632Z,7.47
2022-09-28T02:19:14.666Z,7.46
2022-09-28T02:21:44.751Z,7.45
2022-09-28T02:24:53.961Z,7.43
2022-09-28T02:27:42.839Z,7.43
2022-09-28T02:30:11.592Z,7.48
2022-09-28T02:32:42.702Z,7.47
2022-09-28T02:35:12.746Z,7.45
2022-09-28T02:37:41.008Z,7.39
2022-09-28T02:40:19.962Z,7.44
2022-09-28T02:42:57.230Z,7.45
2022-09-28T02:45:37.206Z,7.37
2022-09-28T02:48:43.479Z,7.35
2022-09-28T02:51:20.226Z,7.33
2022-09-28T02:54:03.468Z,7.35
2022-09-28T02:56:58.148Z,7.48
2022-09-28T02:59:47.839Z,7.39
2022-09-28T03:02:27.930Z,7.32
2022-09-28T03:05:11.011Z,7.35
2022-09-28T03:08:03.835Z,7.28
2022-09-28T03:10:44.061Z,7.31
2022-09-28T03:13:13.702Z,7.27
2022-09-28T03:15:46.458Z,7.16
2022-09-28T03:18:16.871Z,7.26
2022-09-28T03:20:44.920Z,7.37
2022-09-28T03:23:24.483Z,7.26
2022-09-28T03:25:52.747Z,7.33
2022-09-28T03:28:21.484Z,7.24
2022-09-28T03:30:50.103Z,7.29
2022-09-28T03:33:18.460Z,7.31
2022-09-28T03:35:50.673Z,7.22
2022-09-28T03:38:18.905Z,7.18
2022-09-28T03:40:54.666Z,7.16
2022-09-28T03:43:23.214Z,7.22
2022-09-28T03:45:58.295Z,7.11
2022-09-28T03:48:32.920Z,7.09
2022-09-28T03:51:03.282Z,7.07
2022-09-28T03:53:31.328Z,7.19
2022-09-28T03:56:11.937Z,7.09
2022-09-28T03:58:39.991Z,7.01
2022-09-28T04:01:16.580Z,7.04
2022-09-28T04:03:45.685Z,7.00
2022-09-28T04:06:13.681Z,6.97
2022-09-28T04:08:43.104Z,7.04
2022-09-28T04:11:11.268Z,7.10
2022-09-28T04:13:38.743Z,7.14
2022-09-28T04:16:06.848Z,7.03
2022-09-28T04:18:35.261Z,7.06
2022-09-28T04:21:07.035Z,7.06
2022-09-28T04:23:36.875Z,7.20
2022-09-28T04:26:06.393Z,7.09
2022-09-28T04:28:52.724Z,7.15
2022-09-28T04:31:23.178Z,7.11
2022-09-28T04:33:50.714Z,7.21
2022-09-28T04:36:19.807Z,7.19
2022-09-28T04:38:53.219Z,7.25
2022-09-28T04:41:22.562Z,7.25
2022-09-28T04:43:50.678Z,7.24
2022-09-28T04:46:18.926Z,7.28
2022-09-28T04:48:47.361Z,7.24
2022-09-28T04:51:14.868Z,7.27
2022-09-28T04:53:42.666Z,7.29
2022-09-28T04:56:15.498Z,7.31
2022-09-28T04:58:43.380Z,7.38
2022-09-28T05:01:23.733Z,7.21
2022-09-28T05:03:51.392Z,7.22
2022-09-28T05:06:19.126Z,7.26
2022-09-28T05:08:47.315Z,7.25
2022-09-28T05:11:15.299Z,7.34
2022-09-28T05:13:45.463Z,7.48
2022-09-28T05:16:14.887Z,7.52
2022-09-28T05:18:42.892Z,7.51
2022-09-28T05:21:13.069Z,7.54
2022-09-28T05:23:45.659Z,7.55
2022-09-28T05:26:13.882Z,7.61
2022-09-28T05:28:41.329Z,7.64
2022-09-28T05:31:08.958Z,7.63
2022-09-28T05:33:37.253Z,7.69
2022-09-28T05:36:05.239Z,7.68
2022-09-28T05:38:33.003Z,7.67
2022-09-28T05:41:05.747Z,7.76
2022-09-28T05:43:34.519Z,7.85
2022-09-28T05:46:02.090Z,7.78
2022-09-28T05:48:30.119Z,7.83
2022-09-28T05:50:58.848Z,7.86
2022-09-28T05:53:26.377Z,7.80
2022-09-28T05:55:57.902Z,7.95
2022-09-28T05:58:25.488Z,7.83
2022-09-28T06:00:56.510Z,7.88
2022-09-28T06:03:25.034Z,7.88
2022-09-28T06:05:52.763Z,8.04
2022-09-28T06:08:20.535Z,8.14
2022-09-28T06:10:48.189Z,8.13
2022-09-28T06:13:15.752Z,8.15
2022-09-28T06:15:44.220Z,8.19
2022-09-28T06:18:16.699Z,8.34
2022-09-28T06:20:44.670Z,8.40
2022-09-28T06:23:13.477Z,8.49
2022-09-28T06:25:41.256Z,8.54
2022-09-28T06:28:14.138Z,8.61
2022-09-28T06:30:43.112Z,8.78
2022-09-28T06:33:12.791Z,8.84
2022-09-28T06:35:40.828Z,8.72
2022-09-28T06:38:08.378Z,9.15
2022-09-28T06:40:36.415Z,9.51
2022-09-28T06:43:10.995Z,9.55
2022-09-28T06:45:39.172Z,9.56
2022-09-28T06:48:07.179Z,9.75
2022-09-28T06:50:39.660Z,9.60
2022-09-28T06:53:09.604Z,9.39
2022-09-28T06:55:42.229Z,10.00
2022-09-28T06:58:11.839Z,10.21
2022-09-28T07:00:40.889Z,10.37
2022-09-28T07:03:14.121Z,10.79
2022-09-28T07:05:45.636Z,11.04
2022-09-28T07:08:14.557Z,11.27
2022-09-28T07:10:47.169Z,11.45
2022-09-28T07:13:36.523Z,11.81
2022-09-28T07:16:04.241Z,12.59
2022-09-28T07:18:32.139Z,12.83
2022-09-28T07:20:59.854Z,13.04
2022-09-28T07:23:29.908Z,13.57
2022-09-28T07:25:58.303Z,13.57
2022-09-28T07:28:26.308Z,13.27
2022-09-28T07:30:57.578Z,13.31
2022-09-28T07:33:27.860Z,13.70
2022-09-28T07:35:56.045Z,13.80
2022-09-28T07:38:23.882Z,13.95
2022-09-28T07:41:10.384Z,14.16
2022-09-28T07:43:41.955Z,14.50
2022-09-28T07:46:12.260Z,14.63
2022-09-28T07:48:43.619Z,14.52
2022-09-28T07:51:11.293Z,14.66
2022-09-28T07:53:38.745Z,14.92
2022-09-28T07:56:09.935Z,14.85
2022-09-28T07:58:39.473Z,15.04
2022-09-28T08:01:10.649Z,15.13
2022-09-28T08:03:39.543Z,15.25
2022-09-28T08:06:11.245Z,15.09
2022-09-28T08:08:44.923Z,15.18
2022-09-28T08:11:17.921Z,14.99
2022-09-28T08:13:46.561Z,14.98
2022-09-28T08:16:14.256Z,14.85
2022-09-28T08:18:41.727Z,14.70
2022-09-28T08:21:29.323Z,14.15
2022-09-28T08:23:57.028Z,13.83
2022-09-28T08:26:24.887Z,13.40
2022-09-28T08:28:52.454Z,12.89
2022-09-28T08:31:20.108Z,12.93
2022-09-28T08:33:53.735Z,12.83
2022-09-28T08:36:21.267Z,12.92
2022-09-28T08:38:49.344Z,12.79
2022-09-28T08:41:25.680Z,12.80
2022-09-28T08:44:09.497Z,12.56
2022-09-28T08:46:47.946Z,12.47
2022-09-28T08:49:30.292Z,12.26
2022-09-28T08:51:57.724Z,12.23
2022-09-28T08:54:56.313Z,12.23
2022-09-28T08:57:38.807Z,12.24
2022-09-28T09:00:10.975Z,12.30
2022-09-28T09:02:39.827Z,12.22
2022-09-28T09:05:14.843Z,12.24
2022-09-28T09:08:19.727Z,12.10
2022-09-28T09:10:50.135Z,12.03
2022-09-28T09:13:46.510Z,12.06
2022-09-28T09:16:35.378Z,11.96
2022-09-28T09:19:09.116Z,11.98
2022-09-28T09:21:45.072Z,11.99
2022-09-28T09:24:37.245Z,12.02
2022-09-28T09:27:05.260Z,12.07
2022-09-28T09:30:06.276Z,12.09
2022-09-28T09:32:41.257Z,12.12
2022-09-28T09:35:34.737Z,12.12
2022-09-28T09:38:20.581Z,12.10
2022-09-28T09:41:20.097Z,12.15
2022-09-28T09:44:17.695Z,12.09
2022-09-28T09:47:02.144Z,12.13
2022-09-28T09:49:40.161Z,12.10
2022-09-28T09:52:14.809Z,12.08
2022-09-28T09:54:45.567Z,12.16
2022-09-28T09:57:20.277Z,12.15
2022-09-28T09:59:50.103Z,12.15
2022-09-28T10:02:30.200Z,12.17
2022-09-28T10:05:05.371Z,12.19
2022-09-28T10:07:55.063Z,12.11
2022-09-28T10:10:29.984Z,12.09
2022-09-28T10:12:57.739Z,12.12
2022-09-28T10:15:30.709Z,12.09
2022-09-28T10:18:03.077Z,12.15
2022-09-28T10:20:37.222Z,12.06
2022-09-28T10:23:09.355Z,12.06
2022-09-28T10:25:38.366Z,11.96
2022-09-28T10:28:07.018Z,11.98
2022-09-28T10:30:44.582Z,12.05
2022-09-28T10:33:35.185Z,12.03
2022-09-28T10:36:07.059Z,12.08
2022-09-28T10:38:35.487Z,12.16
2022-09-28T10:41:14.218Z,12.37
2022-09-28T10:44:06.347Z,12.45
2022-09-28T10:46:35.988Z,12.55
2022-09-28T10:49:06.778Z,12.51
2022-09-28T10:51:43.082Z,12.49
2022-09-28T10:54:21.604Z,12.36
2022-09-28T10:56:50.617Z,12.26
2022-09-28T10:59:26.904Z,12.30
2022-09-28T11:02:00.830Z,12.53
2022-09-28T11:04:30.619Z,12.79
2022-09-28T11:07:01.036Z,12.94
2022-09-28T11:09:31.138Z,13.05
2022-09-28T11:12:00.233Z,13.11
2022-09-28T11:14:42.107Z,13.18
2022-09-28T11:17:40.019Z,13.24
2022-09-28T11:20:31.240Z,13.27
2022-09-28T11:23:19.135Z,13.23
2022-09-28T11:26:07.241Z,13.18
2022-09-28T11:28:39.202Z,13.03
2022-09-28T11:31:08.199Z,12.90
2022-09-28T11:33:40.395Z,12.81
2022-09-28T11:36:13.666Z,12.79
2022-09-28T11:38:53.952Z,12.70
2022-09-28T11:41:35.284Z,12.64
2022-09-28T11:44:30.846Z,12.61
2022-09-28T11:47:00.666Z,12.66
2022-09-28T11:49:34.398Z,12.66
2022-09-28T11:52:20.621Z,12.69
2022-09-28T11:54:57.241Z,12.70
2022-09-28T11:57:30.245Z,12.65
2022-09-28T12:00:02.035Z,12.70
2022-09-28T12:02:39.880Z,12.71
2022-09-28T12:05:28.403Z,12.58
2022-09-28T12:08:29.436Z,12.45
2022-09-28T12:11:07.800Z,12.41
2022-09-28T12:13:41.215Z,12.33
2022-09-28T12:16:45.252Z,12.33
2022-09-28T12:19:08.133Z,12.28
2022-09-28T12:21:51.263Z,12.19
2022-09-28T12:24:30.531Z,12.21
2022-09-28T12:27:10.965Z,12.18
2022-09-28T12:29:47.532Z,12.17
2022-09-28T12:32:49.910Z,12.22
2022-09-28T12:36:13.313Z,12.21
2022-09-28T12:39:40.803Z,12.38
2022-09-28T12:42:14.819Z,12.59
2022-09-28T12:45:09.890Z,12.70
2022-09-28T12:48:04.791Z,12.63
2022-09-28T12:50:45.710Z,12.66
2022-09-28T12:53:44.202Z,12.78
2022-09-28T12:56:19.354Z,12.83
2022-09-28T12:59:01.071Z,12.74
2022-09-28T13:01:40.775Z,12.74
2022-09-28T13:04:27.269Z,12.72
2022-09-28T13:07:15.977Z,12.72
2022-09-28T13:09:49.341Z,12.70
2022-09-28T13:12:38.026Z,12.69
2022-09-28T13:15:39.726Z,12.61
2022-09-28T13:18:41.029Z,12.64
2022-09-28T13:21:42.989Z,12.53
2022-09-28T13:24:31.571Z,12.46
2022-09-28T13:27:10.488Z,12.50
2022-09-28T13:32:12.987Z,12.47
2022-09-28T13:34:40.852Z,12.54
2022-09-28T13:37:14.561Z,12.48
2022-09-28T13:39:44.914Z,12.36
2022-09-28T13:42:30.493Z,12.19
2022-09-28T13:45:13.524Z,12.08
2022-09-28T13:47:52.450Z,12.02
2022-09-28T13:50:44.499Z,11.99
2022-09-28T13:53:51.149Z,11.93
2022-09-28T13:56:43.626Z,11.85
2022-09-28T13:59:29.794Z,11.90
2022-09-28T14:02:28.989Z,11.86
2022-09-28T14:05:02.736Z,11.94
2022-09-28T14:07:36.146Z,11.95
2022-09-28T14:10:21.839Z,12.05
2022-09-28T14:12:53.388Z,11.98
2022-09-28T14:15:29.631Z,12.02
2022-09-28T14:18:24.314Z,11.97
2022-09-28T14:21:07.101Z,11.96
2022-09-28T14:24:00.567Z,11.95
2022-09-28T14:26:42.871Z,11.96
2022-09-28T14:29:30.163Z,11.91
2022-09-28T14:32:04.205Z,11.93
2022-09-28T14:34:34.396Z,11.88
2022-09-28T14:37:23.359Z,11.93
2022-09-28T14:40:10.061Z,11.82
2022-09-28T14:42:37.594Z,11.79
2022-09-28T14:45:07.757Z,11.62
2022-09-28T14:47:42.437Z,11.64
2022-09-28T14:50:22.105Z,11.63
2022-09-28T14:52:53.622Z,11.66
2022-09-28T14:55:29.127Z,11.71
2022-09-28T14:57:58.969Z,11.65
2022-09-28T15:00:30.407Z,11.56
2022-09-28T15:03:07.875Z,11.56
2022-09-28T15:05:44.192Z,11.45
2022-09-28T15:08:12.237Z,11.41
2022-09-28T15:10:46.183Z,11.44
2022-09-28T15:13:27.648Z,11.45
2022-09-28T15:16:07.407Z,11.47
2022-09-28T15:18:34.853Z,11.43
2022-09-28T15:21:02.723Z,11.33
2022-09-28T15:23:30.155Z,11.35
2022-09-28T15:25:57.826Z,11.34
2022-09-28T15:28:25.819Z,11.32
2022-09-28T15:31:03.001Z,11.36
2022-09-28T15:33:50.270Z,11.31
2022-09-28T15:36:28.816Z,11.29
2022-09-28T15:39:02.072Z,11.28
2022-09-28T15:41:30.108Z,11.27
2022-09-28T15:44:19.004Z,11.17
2022-09-28T15:46:52.171Z,11.20
2022-09-28T15:49:39.056Z,11.11
2022-09-28T15:52:22.179Z,11.13
2022-09-28T15:54:50.157Z,11.06
2022-09-28T15:57:39.196Z,10.98
2022-09-28T16:00:23.840Z,11.00
2022-09-28T16:03:17.685Z,10.90
2022-09-28T16:06:05.624Z,10.89
2022-09-28T16:08:33.039Z,10.90
2022-09-28T16:11:16.259Z,10.87
2022-09-28T16:14:02.801Z,10.83
2022-09-28T16:16:35.416Z,10.75
2022-09-28T16:19:03.696Z,10.69
2022-09-28T16:21:47.005Z,10.67
2022-09-28T16:24:27.055Z,10.68
2022-09-28T16:27:01.398Z,10.72
2022-09-28T16:29:40.124Z,10.80
2022-09-28T16:32:25.773Z,10.68
2022-09-28T16:35:11.242Z,10.62
2022-09-28T16:37:42.688Z,10.63
2022-09-28T16:40:11.326Z,10.61
2022-09-28T16:42:44.387Z,10.63
2022-09-28T16:45:20.502Z,10.49
2022-09-28T16:47:52.989Z,10.47
2022-09-28T16:50:22.077Z,10.38
2022-09-28T16:53:37.602Z,10.39
2022-09-28T16:56:05.598Z,10.41
2022-09-28T16:58:33.774Z,10.42
2022-09-28T17:01:01.564Z,10.42
2022-09-28T17:03:29.638Z,10.37
2022-09-28T17:05:57.511Z,10.40
2022-09-28T17:08:25.646Z,10.36
2022-09-28T17:11:18.975Z,10.32
2022-09-28T17:13:47.231Z,10.30
2022-09-28T17:16:32.258Z,10.34
2022-09-28T17:19:25.631Z,10.30
2022-09-28T17:21:53.344Z,10.27
2022-09-28T17:24:21.245Z,10.17
2022-09-28T17:26:50.992Z,10.16
2022-09-28T17:29:19.207Z,10.02
2022-09-28T17:31:47.845Z,10.04
2022-09-28T17:34:16.316Z,10.15
2022-09-28T17:36:45.219Z,10.13
2022-09-28T17:39:15.688Z,10.01
2022-09-28T17:41:43.633Z,10.07
2022-09-28T17:44:11.564Z,10.04
2022-09-28T17:46:45.980Z,10.05
2022-09-28T17:49:14.564Z,10.06
2022-09-28T17:51:42.270Z,10.04
2022-09-28T17:54:10.396Z,10.09
2022-09-28T17:56:38.502Z,10.07
2022-09-28T17:59:10.403Z,10.02
2022-09-28T18:01:39.571Z,9.99
2022-09-28T18:04:09.077Z,9.93
2022-09-28T18:06:37.475Z,9.98
2022-09-28T18:09:05.580Z,9.90
2022-09-28T18:11:33.843Z,9.87
2022-09-28T18:14:01.639Z,9.90
2022-09-28T18:16:29.408Z,9.84
2022-09-28T18:18:58.722Z,9.92
2022-09-28T18:21:26.617Z,9.99
2022-09-28T18:23:54.513Z,10.05
2022-09-28T18:26:22.289Z,10.16
2022-09-28T18:28:54.735Z,10.15
2022-09-28T18:31:22.955Z,10.16
2022-09-28T18:33:50.777Z,10.18
2022-09-28T18:36:18.243Z,10.23
2022-09-28T18:38:46.223Z,10.25
2022-09-28T18:41:16.102Z,10.20
2022-09-28T18:43:55.599Z,10.26
2022-09-28T18:46:27.140Z,10.30
2022-09-28T18:48:55.357Z,10.29
2022-09-28T18:51:23.437Z,10.28
2022-09-28T18:53:51.018Z,10.26
2022-09-28T18:56:19.581Z,10.29
2022-09-28T18:58:51.235Z,10.27
2022-09-28T19:01:36.259Z,10.27
2022-09-28T19:04:06.560Z,10.26
2022-09-28T19:06:34.690Z,10.30
2022-09-28T19:09:02.483Z,10.32
2022-09-28T19:11:30.229Z,10.34
2022-09-28T19:13:58.071Z,10.38
2022-09-28T19:16:28.789Z,10.34
2022-09-28T19:18:57.874Z,10.36
2022-09-28T19:21:26.800Z,10.31
2022-09-28T19:23:55.657Z,10.20
2022-09-28T19:26:27.015Z,10.20
2022-09-28T19:28:58.747Z,10.27
2022-09-28T19:31:26.946Z,10.28
2022-09-28T19:33:54.719Z,10.30
2022-09-28T19:36:25.247Z,10.19
2022-09-28T19:38:53.537Z,10.18
2022-09-28T19:41:44.295Z,10.15
2022-09-28T19:44:24.561Z,10.21
2022-09-28T19:47:04.846Z,10.24
2022-09-28T19:49:36.860Z,10.19
2022-09-28T19:52:13.478Z,10.14
2022-09-28T19:54:55.790Z,10.22
2022-09-28T19:57:26.029Z,10.19
2022-09-28T19:59:57.858Z,10.18
2022-09-28T20:02:28.684Z,10.12
2022-09-28T20:04:56.355Z,10.18
2022-09-28T20:07:23.840Z,10.20
2022-09-28T20:09:51.869Z,10.18
2022-09-28T20:12:20.002Z,10.17
2022-09-28T20:14:47.563Z,10.15
2022-09-28T20:17:15.334Z,10.15
2022-09-28T20:19:43.191Z,10.16
2022-09-28T20:22:12.203Z,10.14
2022-09-28T20:24:39.549Z,10.15
2022-09-28T20:27:07.221Z,10.19
2022-09-28T20:29:35.367Z,10.10
2022-09-28T20:32:04.090Z,10.14
2022-09-28T20:34:35.053Z,10.15
2022-09-28T20:37:03.251Z,10.14
2022-09-28T20:39:30.781Z,10.19
2022-09-28T20:41:58.259Z,10.19
2022-09-28T20:44:25.716Z,10.12
2022-09-28T20:46:53.208Z,10.06
2022-09-28T20:49:20.975Z,10.17
2022-09-28T20:51:48.724Z,10.09
2022-09-28T20:54:16.500Z,10.25
2022-09-28T20:56:44.036Z,10.17
2022-09-28T20:59:12.494Z,10.19
2022-09-28T21:01:40.851Z,10.11
2022-09-28T21:04:10.203Z,9.99
2022-09-28T21:06:40.784Z,10.02
2022-09-28T21:09:10.017Z,10.00
2022-09-28T21:11:39.840Z,9.99
2022-09-28T21:14:10.311Z,9.97
2022-09-28T21:16:38.291Z,10.03
2022-09-28T21:19:05.845Z,9.93
2022-09-28T21:21:33.344Z,9.91
2022-09-28T21:24:01.048Z,9.85
2022-09-28T21:26:30.035Z,9.75
2022-09-28T21:28:58.833Z,9.76
2022-09-28T21:31:29.681Z,9.68
2022-09-28T21:33:58.465Z,9.64
2022-09-28T21:36:26.319Z,9.67
2022-09-28T21:38:55.155Z,9.66
2022-09-28T21:41:24.258Z,9.61
2022-09-28T21:43:52.160Z,9.54
2022-09-28T21:46:19.850Z,9.48
2022-09-28T21:48:52.458Z,9.43
2022-09-28T21:51:20.668Z,9.39
2022-09-28T21:53:54.181Z,9.34
2022-09-28T21:56:23.119Z,9.28
2022-09-28T21:58:51.178Z,9.26
2022-09-28T22:19:26.191Z,9.21
2022-09-28T22:21:53.874Z,9.24
2022-09-28T22:24:21.625Z,9.14
2022-09-28T22:27:02.062Z,9.16
2022-09-28T22:29:30.254Z,9.13
2022-09-28T22:32:02.267Z,9.11
2022-09-28T22:34:31.783Z,9.06
2022-09-28T22:37:00.351Z,9.08
2022-09-28T22:39:27.954Z,9.08
2022-09-28T22:41:55.591Z,9.09
2022-09-28T22:44:23.037Z,9.11
2022-09-28T22:46:50.853Z,9.05
2022-09-28T22:49:19.055Z,9.17
2022-09-28T22:51:46.936Z,9.13
2022-09-28T22:54:16.357Z,9.23
2022-09-28T22:56:44.246Z,9.23
2022-09-28T22:59:12.109Z,9.28
2022-09-28T23:01:39.746Z,9.30
2022-09-28T23:04:09.146Z,9.25
2022-09-28T23:06:36.596Z,9.28
2022-09-28T23:09:04.227Z,9.27
2022-09-28T23:11:32.060Z,9.25
2022-09-28T23:14:00.407Z,9.29
2022-09-28T23:16:28.129Z,9.33
2022-09-28T23:18:56.131Z,9.37
2022-09-28T23:21:25.974Z,9.37
2022-09-28T23:23:59.650Z,9.39
2022-09-28T23:26:29.968Z,9.34
2022-09-28T23:28:58.689Z,9.37
2022-09-28T23:31:29.209Z,9.35
2022-09-28T23:34:01.214Z,9.34
2022-09-28T23:36:29.733Z,9.34
2022-09-28T23:38:58.131Z,9.32
2022-09-28T23:41:26.038Z,9.33
2022-09-28T23:43:53.528Z,9.36
2022-09-28T23:46:21.485Z,9.38
2022-09-28T23:48:49.986Z,9.34
2022-09-28T23:51:17.936Z,9.32
2022-09-28T23:53:46.210Z,9.25
2022-09-28T23:56:14.626Z,9.25
2022-09-28T23:58:42.277Z,9.27
